Time;durP1;ratioP1;P1;durP2;ratioP2;P2;SDS_P1;SDS_P2;PMS_P1;PMS_P2;Temp;Humidity;BMP_temperature;BMP_pressure;BME280_temperature;BME280_humidity;BME280_pressure;Samples;Min_cycle;Max_cycle;Signal;HPM_P1;HPM_P2
2022/04/04 00:00:18;;;;;;;4.05;2.78;;;4.40;72.20;;;;;;5084248;28;20024;-69
2022/04/04 00:02:44;;;;;;;4.80;3.65;;;4.40;72.50;;;;;;5090445;28;20020;-68
2022/04/04 00:05:11;;;;;;;4.65;3.28;;;4.30;72.70;;;;;;5087305;28;20044;-70
2022/04/04 00:07:37;;;;;;;4.82;3.35;;;4.40;72.90;;;;;;5077381;28;20050;-69
2022/04/04 00:10:03;;;;;;;3.30;2.60;;;4.30;72.90;;;;;;5083354;28;20032;-69
2022/04/04 00:12:29;;;;;;;4.07;3.03;;;4.30;72.90;;;;;;5087921;28;20490;-69
2022/04/04 00:14:54;;;;;;;3.42;3.00;;;4.30;73.00;;;;;;5078855;28;20065;-69
2022/04/04 00:17:20;;;;;;;4.47;3.30;;;4.30;72.90;;;;;;5078259;28;20822;-70
2022/04/04 00:19:45;;;;;;;4.50;3.10;;;4.30;72.90;;;;;;5086608;28;20402;-71
2022/04/04 00:22:11;;;;;;;5.43;3.47;;;4.30;73.00;;;;;;5084213;28;20035;-69
2022/04/04 00:24:36;;;;;;;3.58;3.20;;;4.20;73.00;;;;;;5082536;28;20028;-68
2022/04/04 00:27:02;;;;;;;4.60;3.10;;;4.30;73.00;;;;;;5086535;28;20027;-69
2022/04/04 00:29:28;;;;;;;3.55;2.65;;;4.20;73.30;;;;;;5083675;28;20035;-69
2022/04/04 00:31:54;;;;;;;2.88;2.58;;;4.20;73.20;;;;;;5077140;28;20406;-67
2022/04/04 00:34:20;;;;;;;3.97;2.90;;;4.20;73.20;;;;;;5080753;28;20023;-69
2022/04/04 00:36:46;;;;;;;2.88;2.38;;;4.10;73.20;;;;;;5072628;28;20028;-69
2022/04/04 00:39:15;;;;;;;2.92;2.63;;;4.20;73.20;;;;;;5079589;28;20072;-69
2022/04/04 00:41:43;;;;;;;4.72;3.60;;;4.10;73.20;;;;;;5080555;28;20038;-69
2022/04/04 00:44:09;;;;;;;4.50;3.10;;;4.10;73.30;;;;;;5074861;28;20445;-71
2022/04/04 00:46:38;;;;;;;3.10;2.55;;;4.10;73.40;;;;;;5078850;28;20075;-69
2022/04/04 00:49:05;;;;;;;4.18;3.00;;;4.00;73.50;;;;;;5070777;28;20033;-70
2022/04/04 00:51:30;;;;;;;7.20;4.53;;;4.00;73.80;;;;;;5069085;28;20166;-69
2022/04/04 00:53:55;;;;;;;4.80;3.67;;;4.00;74.00;;;;;;5077490;28;20115;-69
2022/04/04 00:56:21;;;;;;;5.90;3.60;;;4.00;74.20;;;;;;5093560;28;20053;-68
2022/04/04 00:58:47;;;;;;;5.40;3.90;;;4.00;74.20;;;;;;5086938;28;20029;-68
2022/04/04 01:01:13;;;;;;;5.05;3.72;;;4.00;74.30;;;;;;5079969;28;20032;-70
2022/04/04 01:03:38;;;;;;;6.03;3.50;;;4.00;74.20;;;;;;5082009;28;20024;-69
2022/04/04 01:06:04;;;;;;;5.97;3.85;;;4.00;74.20;;;;;;5076898;28;20417;-69
2022/04/04 01:08:31;;;;;;;4.82;3.67;;;4.00;74.40;;;;;;5075654;28;20024;-69
2022/04/04 01:10:57;;;;;;;5.05;3.72;;;4.00;74.40;;;;;;5087640;28;20066;-69
2022/04/04 01:13:23;;;;;;;5.07;3.90;;;3.90;74.30;;;;;;5075208;28;20052;-70
2022/04/04 01:15:48;;;;;;;3.67;3.20;;;3.90;74.30;;;;;;5074724;28;20028;-69
2022/04/04 01:18:14;;;;;;;5.70;4.50;;;3.90;74.40;;;;;;5074485;28;20019;-68
2022/04/04 01:20:39;;;;;;;6.65;4.07;;;3.90;74.50;;;;;;5074696;28;20111;-69
2022/04/04 01:23:05;;;;;;;6.65;4.47;;;3.90;74.60;;;;;;5074975;28;20020;-70
2022/04/04 01:25:33;;;;;;;6.25;4.30;;;3.90;74.60;;;;;;5072821;28;20025;-68
2022/04/04 01:28:00;;;;;;;6.82;4.72;;;3.90;74.70;;;;;;5074993;28;20036;-70
2022/04/04 01:30:26;;;;;;;5.07;3.60;;;3.80;74.70;;;;;;5076354;28;20044;-69
2022/04/04 01:32:53;;;;;;;5.30;4.32;;;3.90;74.80;;;;;;5072685;28;20040;-68
2022/04/04 01:35:20;;;;;;;4.75;3.80;;;3.80;74.90;;;;;;5077933;28;20039;-68
2022/04/04 01:37:47;;;;;;;5.43;3.90;;;3.80;74.90;;;;;;5069424;28;20029;-68
2022/04/04 01:40:12;;;;;;;5.70;3.97;;;3.80;74.90;;;;;;5077056;28;20150;-69
2022/04/04 01:42:39;;;;;;;6.10;3.90;;;3.80;75.00;;;;;;5072362;28;20096;-69
2022/04/04 01:45:09;;;;;;;5.38;4.28;;;3.80;74.90;;;;;;5070082;28;20043;-69
2022/04/04 01:47:35;;;;;;;5.97;4.10;;;3.90;74.80;;;;;;5080400;28;20026;-69
2022/04/04 01:50:02;;;;;;;5.00;3.50;;;3.90;74.70;;;;;;5072625;28;20028;-68
2022/04/04 01:52:27;;;;;;;5.57;4.50;;;3.80;74.50;;;;;;5067929;28;20032;-67
2022/04/04 01:54:53;;;;;;;6.28;4.50;;;3.80;74.60;;;;;;5074241;28;20036;-67
2022/04/04 01:57:19;;;;;;;6.55;4.20;;;3.80;74.60;;;;;;5071471;28;20031;-67
2022/04/04 01:59:44;;;;;;;5.32;4.05;;;3.90;74.60;;;;;;5070010;28;20103;-68
2022/04/04 02:02:10;;;;;;;5.07;4.03;;;3.90;74.50;;;;;;5072660;28;20058;-70
2022/04/04 02:04:36;;;;;;;6.18;4.60;;;3.90;74.50;;;;;;5070361;28;20025;-68
2022/04/04 02:07:05;;;;;;;5.30;4.10;;;3.90;74.50;;;;;;5072284;28;20036;-69
2022/04/04 02:09:31;;;;;;;6.35;4.80;;;3.90;74.40;;;;;;5066306;28;20090;-69
2022/04/04 02:11:57;;;;;;;8.27;5.10;;;3.90;74.40;;;;;;5072981;28;20716;-69
2022/04/04 02:14:23;;;;;;;6.13;4.40;;;3.80;74.40;;;;;;5071772;28;20016;-70
2022/04/04 02:16:48;;;;;;;5.95;4.25;;;3.80;74.30;;;;;;5079808;28;20032;-69
2022/04/04 02:19:16;;;;;;;5.80;3.95;;;3.90;74.20;;;;;;5084834;28;20028;-69
2022/04/04 02:21:41;;;;;;;6.95;5.25;;;3.90;74.10;;;;;;5089677;28;20059;-70
2022/04/04 02:24:07;;;;;;;5.63;4.78;;;3.90;74.10;;;;;;5090297;28;20055;-69
2022/04/04 02:26:33;;;;;;;5.72;4.18;;;3.90;74.10;;;;;;5081062;28;20021;-69
2022/04/04 02:28:58;;;;;;;6.47;4.78;;;4.00;74.00;;;;;;5079836;28;20040;-69
2022/04/04 02:31:24;;;;;;;6.50;4.80;;;3.90;74.00;;;;;;5075818;28;20048;-70
2022/04/04 02:33:50;;;;;;;6.10;4.32;;;3.90;73.90;;;;;;5100815;28;20093;-69
2022/04/04 02:36:16;;;;;;;6.38;5.07;;;4.00;73.90;;;;;;5093824;28;20024;-69
2022/04/04 02:38:41;;;;;;;6.32;4.82;;;4.00;73.70;;;;;;5081745;28;20086;-69
2022/04/04 02:41:07;;;;;;;7.82;5.15;;;4.00;73.70;;;;;;5073904;28;20374;-72
2022/04/04 02:43:33;;;;;;;4.65;4.00;;;4.00;73.60;;;;;;5067495;28;20043;-70
2022/04/04 02:45:59;;;;;;;6.88;5.80;;;4.10;73.50;;;;;;5070592;28;20059;-68
2022/04/04 02:48:24;;;;;;;7.50;5.50;;;4.00;73.40;;;;;;5074411;28;20031;-70
2022/04/04 02:50:52;;;;;;;6.50;5.10;;;4.00;73.40;;;;;;5070847;28;20063;-68
2022/04/04 02:53:17;;;;;;;6.28;4.85;;;4.00;73.20;;;;;;5075837;28;20036;-69
2022/04/04 02:58:27;;;;;;;6.78;5.18;;;4.00;73.10;;;;;;5068958;28;20063;-69
2022/04/04 03:00:53;;;;;;;7.70;5.40;;;4.00;73.10;;;;;;5072987;28;20040;-68
2022/04/04 03:03:19;;;;;;;6.82;6.13;;;4.00;73.00;;;;;;5070998;28;20453;-69
2022/04/04 03:05:44;;;;;;;6.60;5.65;;;4.00;72.90;;;;;;5076666;28;20035;-68
2022/04/04 03:08:10;;;;;;;7.13;5.72;;;4.00;72.90;;;;;;5071168;28;20017;-70
2022/04/04 03:10:36;;;;;;;7.43;6.07;;;4.00;72.80;;;;;;5075538;28;20498;-69
2022/04/04 03:13:05;;;;;;;6.38;5.50;;;4.10;72.80;;;;;;5080654;28;20024;-69
2022/04/04 03:15:32;;;;;;;7.15;5.80;;;4.10;72.70;;;;;;5068104;28;20048;-70
2022/04/04 03:17:57;;;;;;;11.02;7.95;;;4.10;72.60;;;;;;5074318;28;20029;-70
2022/04/04 03:20:25;;;;;;;7.78;6.22;;;4.10;72.60;;;;;;5069977;28;20027;-69
2022/04/04 03:22:53;;;;;;;7.25;5.85;;;4.00;72.50;;;;;;5076827;28;20028;-69
2022/04/04 03:25:19;;;;;;;7.57;6.15;;;4.10;72.50;;;;;;5073330;28;20028;-69
2022/04/04 03:27:47;;;;;;;11.65;7.32;;;4.10;72.40;;;;;;5067517;28;20509;-69
2022/04/04 03:30:18;;;;;;;8.32;6.53;;;4.10;72.40;;;;;;5071252;28;20032;-71
2022/04/04 03:32:47;;;;;;;7.63;6.35;;;4.20;72.40;;;;;;5070101;28;20021;-69
2022/04/04 03:35:14;;;;;;;6.35;5.13;;;4.10;72.30;;;;;;5064702;28;20032;-71
2022/04/04 03:37:41;;;;;;;10.13;6.45;;;4.10;72.30;;;;;;5071882;28;20043;-68
2022/04/04 03:40:09;;;;;;;8.70;6.65;;;4.20;72.30;;;;;;5067184;28;20051;-69
2022/04/04 03:42:37;;;;;;;8.77;6.72;;;4.10;72.20;;;;;;5071166;28;20095;-69
2022/04/04 03:45:04;;;;;;;8.82;7.32;;;4.10;72.40;;;;;;5072677;28;20021;-69
2022/04/04 03:47:30;;;;;;;7.68;6.75;;;4.10;72.40;;;;;;5071857;28;20028;-68
2022/04/04 03:49:56;;;;;;;9.18;6.95;;;4.10;72.40;;;;;;5072377;28;20016;-69
2022/04/04 03:52:21;;;;;;;8.85;6.68;;;4.10;72.30;;;;;;5086126;28;20103;-68
2022/04/04 03:54:47;;;;;;;9.70;7.10;;;4.10;72.30;;;;;;5084090;28;20490;-67
2022/04/04 03:57:13;;;;;;;7.22;6.13;;;4.20;72.30;;;;;;5085210;28;20016;-70
2022/04/04 03:59:39;;;;;;;9.05;7.30;;;4.20;72.30;;;;;;5086641;28;20437;-68
2022/04/04 04:02:05;;;;;;;10.38;7.20;;;4.20;72.40;;;;;;5085316;28;20036;-68
2022/04/04 04:04:30;;;;;;;11.20;7.57;;;4.10;72.30;;;;;;5087715;28;20105;-68
2022/04/04 04:06:56;;;;;;;10.10;7.82;;;4.10;72.40;;;;;;5081070;28;20109;-68
2022/04/04 04:09:21;;;;;;;9.52;7.13;;;4.20;72.50;;;;;;5073123;28;20074;-68
2022/04/04 04:11:48;;;;;;;8.35;6.45;;;4.20;72.50;;;;;;5083614;28;20090;-69
2022/04/04 04:14:14;;;;;;;9.05;6.93;;;4.20;72.50;;;;;;5070627;28;20383;-71
2022/04/04 04:16:39;;;;;;;10.25;7.75;;;4.20;72.40;;;;;;5071559;28;20029;-70
2022/04/04 04:20:19;;;;;;;10.18;6.85;;;4.20;72.30;;;;;;5069007;28;20418;-71
2022/04/04 04:21:51;;;;;;;9.13;7.50;;;4.30;72.30;;;;;;5066577;28;20040;-69
2022/04/04 04:24:16;;;;;;;9.70;7.10;;;4.30;72.20;;;;;;5074811;28;20027;-70
2022/04/04 04:26:42;;;;;;;9.25;7.35;;;4.30;72.20;;;;;;5080467;28;20036;-70
2022/04/04 04:29:07;;;;;;;8.55;6.90;;;4.20;72.10;;;;;;5078963;28;20044;-69
2022/04/04 04:31:33;;;;;;;9.20;6.32;;;4.30;72.20;;;;;;5072069;28;20035;-68
2022/04/04 04:34:00;;;;;;;10.55;6.75;;;4.30;72.20;;;;;;5074608;28;20171;-69
2022/04/04 04:36:26;;;;;;;8.68;5.72;;;4.30;72.20;;;;;;5073358;28;20027;-68
2022/04/04 04:38:51;;;;;;;8.65;5.95;;;4.30;72.10;;;;;;5072671;28;20563;-69
2022/04/04 04:41:17;;;;;;;8.90;5.95;;;4.40;72.10;;;;;;5082709;28;20028;-68
2022/04/04 04:43:43;;;;;;;8.82;6.65;;;4.40;72.10;;;;;;5074523;28;20043;-66
2022/04/04 04:46:08;;;;;;;9.15;7.75;;;4.40;72.10;;;;;;5071426;28;20036;-69
2022/04/04 04:48:34;;;;;;;8.95;6.80;;;4.40;72.10;;;;;;5070715;28;20023;-69
2022/04/04 04:50:59;;;;;;;7.20;5.90;;;4.40;72.10;;;;;;5077741;28;20034;-69
2022/04/04 04:53:25;;;;;;;9.52;7.15;;;4.40;72.20;;;;;;5075441;28;20020;-68
2022/04/04 04:55:51;;;;;;;9.15;7.07;;;4.40;72.20;;;;;;5072127;28;20503;-69
2022/04/04 04:58:16;;;;;;;9.32;6.60;;;4.40;72.30;;;;;;5072490;28;20520;-68
2022/04/04 05:00:42;;;;;;;9.07;6.78;;;4.50;72.20;;;;;;5074711;28;20068;-69
2022/04/04 05:03:26;;;;;;;8.55;6.70;;;4.50;72.20;;;;;;5080070;28;20020;-69
2022/04/04 05:05:52;;;;;;;11.13;7.55;;;4.50;72.20;;;;;;5069528;28;20032;-70
2022/04/04 05:08:18;;;;;;;8.23;6.05;;;4.60;72.20;;;;;;5074328;28;20050;-69
2022/04/04 05:10:43;;;;;;;8.70;6.43;;;4.60;72.20;;;;;;5073365;28;20024;-68
2022/04/04 05:13:09;;;;;;;6.93;5.80;;;4.60;72.10;;;;;;5072167;28;20035;-68
2022/04/04 05:15:34;;;;;;;9.10;6.47;;;4.70;72.10;;;;;;5070425;28;20059;-68
2022/04/04 05:18:00;;;;;;;9.80;7.30;;;4.70;72.10;;;;;;5074879;28;20027;-68
2022/04/04 05:20:26;;;;;;;8.65;6.60;;;4.70;72.20;;;;;;5070543;28;20036;-69
2022/04/04 05:22:51;;;;;;;10.15;6.50;;;4.80;72.20;;;;;;5069749;28;20025;-69
2022/04/04 05:25:17;;;;;;;9.90;7.20;;;4.70;72.10;;;;;;5075513;28;20517;-69
2022/04/04 05:27:43;;;;;;;9.00;6.72;;;4.80;72.20;;;;;;5075126;28;20483;-68
2022/04/04 05:30:09;;;;;;;10.35;7.38;;;4.80;72.20;;;;;;5074344;28;20031;-67
2022/04/04 05:32:35;;;;;;;10.02;7.00;;;4.90;72.20;;;;;;5066976;28;20517;-68
2022/04/04 05:35:02;;;;;;;11.40;7.50;;;4.90;72.10;;;;;;5080230;28;20028;-67
2022/04/04 05:37:28;;;;;;;8.80;6.45;;;4.90;72.10;;;;;;5078823;28;20033;-68
2022/04/04 05:39:55;;;;;;;10.90;7.45;;;5.00;72.00;;;;;;5072835;28;20525;-68
2022/04/04 05:42:21;;;;;;;9.45;8.07;;;5.00;72.00;;;;;;5081760;28;20039;-68
2022/04/04 05:44:47;;;;;;;12.52;7.53;;;5.00;71.90;;;;;;5076592;28;20055;-68
2022/04/04 05:47:14;;;;;;;9.02;7.13;;;5.10;71.80;;;;;;5072934;28;20052;-68
2022/04/04 05:49:40;;;;;;;11.05;7.43;;;5.10;71.60;;;;;;5069065;28;20021;-67
2022/04/04 05:52:06;;;;;;;11.43;6.55;;;5.10;71.50;;;;;;5075251;28;20027;-69
2022/04/04 05:54:32;;;;;;;11.50;7.15;;;5.20;71.40;;;;;;5077008;28;20020;-69
2022/04/04 05:56:58;;;;;;;9.98;6.88;;;5.20;71.30;;;;;;5076566;28;20032;-68
2022/04/04 05:59:25;;;;;;;9.73;6.78;;;5.20;71.10;;;;;;5072088;28;20024;-67
2022/04/04 06:01:50;;;;;;;10.38;7.20;;;5.30;71.00;;;;;;5067762;28;20031;-68
2022/04/04 06:04:16;;;;;;;9.55;6.57;;;5.30;70.80;;;;;;5074686;28;20107;-68
2022/04/04 06:06:42;;;;;;;10.02;7.70;;;5.30;70.70;;;;;;5070485;28;20056;-68
2022/04/04 06:09:08;;;;;;;8.23;6.30;;;5.40;70.70;;;;;;5079941;28;20028;-67
2022/04/04 06:11:34;;;;;;;9.45;7.20;;;5.50;70.70;;;;;;5073891;28;20497;-68
2022/04/04 06:14:00;;;;;;;8.98;6.78;;;5.40;70.50;;;;;;5080112;28;20059;-68
2022/04/04 06:16:25;;;;;;;8.32;6.20;;;5.50;70.50;;;;;;5076947;28;20106;-68
2022/04/04 06:18:51;;;;;;;10.18;7.10;;;5.50;70.30;;;;;;5071938;28;20025;-69
2022/04/04 06:21:17;;;;;;;8.60;6.40;;;5.60;70.30;;;;;;5068159;28;20446;-69
2022/04/04 06:23:42;;;;;;;10.07;6.60;;;5.60;70.20;;;;;;5073225;28;20430;-69
2022/04/04 06:26:12;;;;;;;7.85;6.10;;;5.70;70.20;;;;;;5074118;28;20081;-68
2022/04/04 06:28:38;;;;;;;9.73;6.55;;;5.80;70.00;;;;;;5077872;28;20085;-69
2022/04/04 06:31:04;;;;;;;9.77;6.82;;;5.90;69.80;;;;;;5076791;28;20425;-69
2022/04/04 06:33:31;;;;;;;10.00;7.07;;;5.90;69.60;;;;;;5079200;28;20379;-70
2022/04/04 06:36:09;;;;;;;10.27;6.82;;;5.90;69.30;;;;;;5078632;28;20497;-70
2022/04/04 06:38:35;;;;;;;9.93;6.95;;;5.90;69.10;;;;;;5084114;28;20110;-69
2022/04/04 06:41:04;;;;;;;7.75;5.95;;;6.00;68.90;;;;;;5072733;28;20112;-69
2022/04/04 06:43:30;;;;;;;8.40;6.50;;;6.00;68.70;;;;;;5076087;28;20020;-69
2022/04/04 06:45:56;;;;;;;8.23;6.30;;;6.10;68.60;;;;;;5084723;28;20028;-69
2022/04/04 06:48:22;;;;;;;11.65;6.97;;;6.10;68.20;;;;;;5087219;28;20012;-69
2022/04/04 06:50:48;;;;;;;8.95;6.90;;;6.10;67.90;;;;;;5081365;28;20089;-69
2022/04/04 06:53:13;;;;;;;10.80;7.38;;;6.20;67.70;;;;;;5088845;28;20394;-68
2022/04/04 06:55:39;;;;;;;10.88;6.97;;;6.20;67.50;;;;;;5078479;28;20120;-68
2022/04/04 06:58:05;;;;;;;9.10;7.25;;;6.30;67.30;;;;;;5086197;28;20023;-69
2022/04/04 07:00:31;;;;;;;10.48;6.68;;;6.40;67.10;;;;;;5080439;28;20538;-69
2022/04/04 07:02:58;;;;;;;8.73;6.32;;;6.40;67.00;;;;;;5077137;28;20096;-69
2022/04/04 07:05:24;;;;;;;10.07;6.75;;;6.40;66.80;;;;;;5076944;28;20033;-70
2022/04/04 07:07:50;;;;;;;8.55;6.60;;;6.40;66.70;;;;;;5080641;28;20020;-69
2022/04/04 07:10:15;;;;;;;8.20;6.07;;;6.50;66.60;;;;;;5081616;28;20036;-69
2022/04/04 07:12:42;;;;;;;9.55;6.97;;;6.50;66.50;;;;;;5080681;28;20103;-69
2022/04/04 07:15:10;;;;;;;8.57;6.00;;;6.50;66.30;;;;;;5072969;28;20785;-69
2022/04/04 07:17:39;;;;;;;11.77;6.95;;;6.60;66.30;;;;;;5075203;28;20035;-70
2022/04/04 07:20:06;;;;;;;8.15;5.72;;;6.70;66.00;;;;;;5079031;28;20033;-68
2022/04/04 07:22:40;;;;;;;9.60;6.60;;;6.80;66.00;;;;;;5081570;28;20020;-69
2022/04/04 07:25:09;;;;;;;8.38;6.45;;;6.90;65.80;;;;;;5081636;28;20103;-69
2022/04/04 07:27:42;;;;;;;10.23;6.10;;;6.90;65.60;;;;;;5081796;28;20406;-68
2022/04/04 07:30:09;;;;;;;7.07;5.32;;;6.90;65.60;;;;;;5078152;28;20032;-69
2022/04/04 07:32:38;;;;;;;7.18;5.20;;;7.00;65.50;;;;;;5084635;28;20445;-68
2022/04/04 07:35:05;;;;;;;7.07;5.72;;;7.00;65.60;;;;;;5077081;28;20036;-69
2022/04/04 07:37:31;;;;;;;9.70;6.80;;;7.00;65.60;;;;;;5079391;28;20016;-68
2022/04/04 07:39:56;;;;;;;10.23;6.38;;;7.00;65.70;;;;;;5077357;28;20121;-69
2022/04/04 07:42:22;;;;;;;10.32;6.90;;;7.00;66.10;;;;;;5078540;28;20069;-69
2022/04/04 07:44:48;;;;;;;9.90;6.30;;;7.00;66.50;;;;;;5082308;28;20027;-70
2022/04/04 07:47:13;;;;;;;12.07;6.72;;;7.00;66.80;;;;;;5074321;28;20016;-69
2022/04/04 07:49:39;;;;;;;11.57;7.50;;;7.10;67.20;;;;;;5080813;28;20103;-69
2022/04/04 07:52:05;;;;;;;10.23;7.03;;;7.00;67.70;;;;;;5082042;28;20020;-69
2022/04/04 07:54:30;;;;;;;8.57;6.53;;;7.00;68.20;;;;;;5075209;28;20021;-68
2022/04/04 07:56:56;;;;;;;10.85;7.35;;;7.00;68.70;;;;;;5076003;28;20162;-68
2022/04/04 07:59:23;;;;;;;8.85;7.28;;;6.90;69.20;;;;;;5079883;28;20078;-69
2022/04/04 08:01:48;;;;;;;10.02;7.63;;;6.90;69.60;;;;;;5086443;28;21408;-70
2022/04/04 08:04:14;;;;;;;9.82;7.88;;;6.90;70.20;;;;;;5085971;28;20021;-69
2022/04/04 08:06:39;;;;;;;13.13;8.48;;;6.80;70.80;;;;;;5082752;28;20020;-70
2022/04/04 08:09:05;;;;;;;11.52;8.18;;;6.80;71.40;;;;;;5089459;28;20023;-69
2022/04/04 08:11:30;;;;;;;9.65;6.90;;;6.80;71.70;;;;;;5087113;28;20025;-70
2022/04/04 08:13:56;;;;;;;13.43;8.25;;;6.80;72.00;;;;;;5086152;28;20111;-70
2022/04/04 08:16:25;;;;;;;11.85;8.18;;;6.80;72.20;;;;;;5094467;28;20465;-70
2022/04/04 08:18:51;;;;;;;10.77;8.35;;;6.80;72.40;;;;;;5092829;28;20050;-70
2022/04/04 08:21:17;;;;;;;10.68;8.40;;;6.80;72.60;;;;;;5083698;28;20740;-70
2022/04/04 08:23:42;;;;;;;8.73;7.32;;;6.80;72.80;;;;;;5090606;28;20099;-69
2022/04/04 08:26:08;;;;;;;11.88;8.32;;;6.70;73.50;;;;;;5092777;28;20078;-70
2022/04/04 08:28:33;;;;;;;9.88;7.57;;;6.70;72.90;;;;;;5084519;28;20094;-70
2022/04/04 08:30:59;;;;;;;13.48;8.73;;;6.70;73.10;;;;;;5102208;28;20385;-70
2022/04/04 08:33:25;;;;;;;11.48;8.40;;;6.70;73.20;;;;;;5094926;28;20019;-69
2022/04/04 08:35:53;;;;;;;10.90;7.47;;;6.70;73.20;;;;;;5093594;28;20036;-70
2022/04/04 08:38:20;;;;;;;14.52;8.70;;;6.70;73.20;;;;;;5087745;28;20028;-70
2022/04/04 08:40:48;;;;;;;12.30;8.77;;;6.70;73.10;;;;;;5088097;27;20035;-70
2022/04/04 08:43:16;;;;;;;10.95;8.02;;;6.80;73.20;;;;;;5095444;28;20020;-69
2022/04/04 08:45:42;;;;;;;12.70;8.98;;;6.80;73.10;;;;;;5097144;28;20482;-69
2022/04/04 08:48:12;;;;;;;13.27;9.02;;;6.80;73.00;;;;;;5098176;28;20763;-70
2022/04/04 08:50:39;;;;;;;11.07;8.63;;;6.80;73.00;;;;;;5097329;28;20028;-71
2022/04/04 08:53:08;;;;;;;10.98;8.18;;;6.90;72.90;;;;;;5098679;28;20081;-70
2022/04/04 08:55:37;;;;;;;12.18;8.60;;;6.90;72.80;;;;;;5092926;28;20673;-69
2022/04/04 08:58:03;;;;;;;11.27;8.35;;;6.90;72.70;;;;;;5092818;28;20023;-69
2022/04/04 09:00:29;;;;;;;11.45;8.55;;;7.00;72.60;;;;;;5093250;28;20417;-69
2022/04/04 09:03:05;;;;;;;12.93;10.82;;;7.00;72.40;;;;;;5086624;28;20022;-70
2022/04/04 09:05:33;;;;;;;13.02;9.82;;;7.00;72.50;;;;;;5096231;28;20028;-70
2022/04/04 09:08:07;;;;;;;11.00;9.48;;;6.90;72.70;;;;;;5081530;28;20036;-70
2022/04/04 09:10:34;;;;;;;13.80;8.75;;;7.00;73.00;;;;;;5091929;28;20189;-70
2022/04/04 09:13:17;;;;;;;12.23;8.95;;;7.00;73.20;;;;;;5097719;28;20103;-71
2022/04/04 09:15:59;;;;;;;;;;;6.90;73.70;;;;;;5085586;28;20082;-70
2022/04/04 09:18:39;;;;;;;13.35;9.10;;;6.90;74.20;;;;;;5086722;28;19916;-71
2022/04/04 09:21:06;;;;;;;11.25;8.55;;;6.80;74.70;;;;;;5083359;28;20028;-69
2022/04/04 09:23:49;;;;;;;10.98;8.75;;;6.80;75.10;;;;;;5089803;28;20016;-68
2022/04/04 09:26:34;;;;;;;12.05;10.02;;;6.80;75.50;;;;;;5077525;28;20028;-69
2022/04/04 09:29:16;;;;;;;9.85;7.47;;;6.80;76.00;;;;;;5073039;28;20043;-68
2022/04/04 09:31:54;;;;;;;11.52;8.45;;;6.80;76.00;;;;;;5087627;28;20052;-68
2022/04/04 09:34:20;;;;;;;12.73;9.40;;;6.80;76.50;;;;;;5079221;28;20027;-68
2022/04/04 09:36:47;;;;;;;18.25;10.30;;;6.80;77.70;;;;;;5087732;28;20508;-69
2022/04/04 09:39:14;;;;;;;9.20;7.82;;;6.70;77.50;;;;;;5088163;28;20052;-69
2022/04/04 09:41:40;;;;;;;10.38;8.48;;;6.70;77.70;;;;;;5080244;28;20024;-70
2022/04/04 09:44:08;;;;;;;12.25;8.90;;;6.70;78.10;;;;;;5096247;28;20019;-69
2022/04/04 09:46:41;;;;;;;12.38;8.55;;;6.70;78.50;;;;;;5092424;28;20025;-69
2022/04/04 09:49:18;;;;;;;11.57;9.43;;;6.70;78.70;;;;;;5109884;28;20390;-69
2022/04/04 09:51:54;;;;;;;13.07;9.98;;;6.70;78.90;;;;;;5080569;28;20033;-69
2022/04/04 09:54:23;;;;;;;10.75;8.45;;;6.70;79.10;;;;;;5070516;28;20035;-69
2022/04/04 09:56:50;;;;;;;11.60;8.88;;;6.70;80.00;;;;;;5095839;28;20025;-69
2022/04/04 09:59:17;;;;;;;11.68;9.02;;;6.70;79.50;;;;;;5101342;28;20020;-69
2022/04/04 10:01:45;;;;;;;12.00;8.25;;;6.70;79.70;;;;;;5099445;28;20427;-70
2022/04/04 10:04:14;;;;;;;12.68;8.85;;;6.70;79.70;;;;;;5110068;28;20020;-70
2022/04/04 10:06:42;;;;;;;8.38;7.47;;;6.70;79.80;;;;;;5094255;28;20391;-70
2022/04/04 10:09:09;;;;;;;12.27;9.00;;;6.70;79.90;;;;;;5078647;28;20028;-69
2022/04/04 10:11:37;;;;;;;11.88;10.05;;;6.80;79.90;;;;;;5086193;28;20478;-69
2022/04/04 10:14:03;;;;;;;11.13;8.13;;;6.80;80.30;;;;;;5089525;28;20032;-69
2022/04/04 10:16:30;;;;;;;9.00;7.43;;;6.70;80.40;;;;;;5083050;28;20025;-69
2022/04/04 10:18:57;;;;;;;10.18;8.38;;;6.80;80.50;;;;;;5079104;28;20024;-69
2022/04/04 10:21:23;;;;;;;10.52;8.38;;;6.80;80.60;;;;;;5079080;28;20064;-69
2022/04/04 10:23:52;;;;;;;8.55;7.20;;;6.80;80.70;;;;;;5098528;28;20043;-69
2022/04/04 10:26:21;;;;;;;12.23;8.63;;;6.80;80.80;;;;;;5082959;28;20099;-70
2022/04/04 10:28:48;;;;;;;11.68;8.63;;;6.80;80.90;;;;;;5087970;28;20106;-70
2022/04/04 10:31:20;;;;;;;11.82;9.30;;;6.80;81.00;;;;;;5100516;28;20023;-70
2022/04/04 10:33:48;;;;;;;9.32;7.95;;;6.80;81.00;;;;;;5097531;28;20020;-70
2022/04/04 10:36:21;;;;;;;11.18;8.82;;;6.90;81.10;;;;;;5087027;28;20020;-70
2022/04/04 10:38:54;;;;;;;8.98;6.78;;;6.80;81.20;;;;;;5100970;28;20027;-70
2022/04/04 10:41:21;;;;;;;;;;;6.80;81.20;;;;;;5088138;28;20079;-70
2022/04/04 10:43:52;;;;;;;11.65;8.07;;;6.90;81.20;;;;;;5094119;28;19904;-70
2022/04/04 10:46:20;;;;;;;9.18;7.35;;;6.80;81.30;;;;;;5088196;28;20073;-70
2022/04/04 10:48:54;;;;;;;11.77;9.32;;;6.80;81.50;;;;;;5080888;28;20540;-70
2022/04/04 10:51:26;;;;;;;9.07;6.88;;;6.80;81.70;;;;;;5082067;28;20741;-70
2022/04/04 10:53:53;;;;;;;6.60;5.87;;;6.80;81.70;;;;;;5076443;28;20027;-70
2022/04/04 10:56:24;;;;;;;8.43;6.90;;;6.90;81.70;;;;;;5084578;28;20024;-70
2022/04/04 10:59:13;;;;;;;8.05;6.95;;;6.90;81.70;;;;;;5093636;28;20039;-70
2022/04/04 11:01:39;;;;;;;8.07;5.90;;;6.90;81.80;;;;;;5083601;28;20622;-70
2022/04/04 11:04:05;;;;;;;7.32;6.40;;;6.90;81.70;;;;;;5097434;28;20022;-70
2022/04/04 11:09:32;;;;;;;7.72;5.50;;;6.90;81.70;;;;;;5080906;28;20104;-70
2022/04/04 11:12:08;;;;;;;8.18;6.90;;;6.90;81.70;;;;;;5084354;28;20035;-70
2022/04/04 11:14:41;;;;;;;9.77;6.63;;;6.90;81.70;;;;;;5097129;28;20138;-70
2022/04/04 11:17:52;;;;;;;7.30;6.07;;;6.90;81.90;;;;;;5082151;28;20038;-70
2022/04/04 11:23:03;;;;;;;6.63;5.47;;;6.90;82.20;;;;;;5061448;28;20043;-70
2022/04/04 11:25:34;;;;;;;6.68;5.88;;;7.00;82.10;;;;;;5103640;28;20035;-70
2022/04/04 11:28:03;;;;;;;6.88;5.20;;;7.00;82.80;;;;;;5079891;28;20040;-70
2022/04/04 11:30:29;;;;;;;7.25;6.18;;;7.00;82.20;;;;;;5080822;28;20081;-70
2022/04/04 11:32:57;;;;;;;8.45;6.15;;;7.00;82.30;;;;;;5079721;28;20028;-70
2022/04/04 11:35:32;;;;;;;6.63;5.32;;;7.00;82.70;;;;;;5082757;28;20511;-70
2022/04/04 11:38:11;;;;;;;7.15;5.43;;;7.00;82.70;;;;;;5083713;28;20395;-70
2022/04/04 11:40:39;;;;;;;5.85;4.65;;;7.00;83.00;;;;;;5097106;28;20047;-70
2022/04/04 11:43:09;;;;;;;7.22;6.32;;;7.00;83.10;;;;;;5091739;28;20046;-70
2022/04/04 11:45:36;;;;;;;6.22;4.72;;;7.00;83.60;;;;;;5099184;28;20036;-70
2022/04/04 11:48:07;;;;;;;6.38;4.70;;;7.10;83.70;;;;;;5083671;28;20027;-70
2022/04/04 11:50:34;;;;;;;6.00;5.22;;;7.10;83.80;;;;;;5081383;28;20020;-70
2022/04/04 11:53:02;;;;;;;7.32;5.55;;;7.10;83.90;;;;;;5080871;28;20547;-70
2022/04/04 11:55:29;;;;;;;5.63;4.45;;;7.10;84.40;;;;;;5083816;28;20077;-70
2022/04/04 11:57:58;;;;;;;7.80;4.93;;;7.10;84.40;;;;;;5077438;28;20046;-70
2022/04/04 12:00:30;;;;;;;6.15;5.28;;;7.20;84.50;;;;;;5092128;28;20057;-70
2022/04/04 12:02:56;;;;;;;7.75;5.35;;;7.20;84.50;;;;;;5097348;28;20089;-70
2022/04/04 12:05:23;;;;;;;7.65;5.60;;;7.20;84.80;;;;;;5079227;28;20103;-70
2022/04/04 12:07:51;;;;;;;6.63;4.50;;;7.20;84.90;;;;;;5077179;28;20028;-70
2022/04/04 12:10:30;;;;;;;6.72;5.75;;;7.20;85.00;;;;;;5080191;28;20425;-70
2022/04/04 12:13:02;;;;;;;7.07;4.35;;;7.20;85.10;;;;;;5084778;28;20027;-70
2022/04/04 12:15:31;;;;;;;6.63;5.20;;;7.20;85.20;;;;;;5087836;28;20035;-70
2022/04/04 12:17:57;;;;;;;7.28;6.10;;;7.20;85.30;;;;;;5087500;28;20027;-70
2022/04/04 12:20:24;;;;;;;7.45;6.30;;;7.20;85.40;;;;;;5098217;28;20047;-70
2022/04/04 12:25:34;;;;;;;7.40;6.28;;;7.30;85.60;;;;;;5082042;28;20071;-70
2022/04/04 12:28:01;;;;;;;7.25;5.85;;;7.30;85.50;;;;;;5085591;28;20052;-70
2022/04/04 12:30:36;;;;;;;7.18;6.32;;;7.30;85.60;;;;;;5081001;28;20481;-70
2022/04/04 12:33:13;;;;;;;8.45;6.38;;;7.40;85.60;;;;;;5090053;28;20082;-70
2022/04/04 12:35:48;;;;;;;7.15;5.97;;;7.40;85.90;;;;;;5093818;28;20028;-70
2022/04/04 12:38:25;;;;;;;6.28;5.53;;;7.40;86.00;;;;;;5081397;28;20077;-71
2022/04/04 12:41:09;;;;;;;5.15;4.65;;;7.40;86.30;;;;;;5079479;28;20028;-70
2022/04/04 12:43:39;;;;;;;5.85;5.22;;;7.40;86.50;;;;;;5074266;28;20028;-71
2022/04/04 12:46:09;;;;;;;5.13;4.63;;;7.40;86.70;;;;;;5080251;28;20482;-71
2022/04/04 12:48:40;;;;;;;5.90;5.20;;;7.40;86.70;;;;;;5085230;28;20375;-71
2022/04/04 12:51:07;;;;;;;4.57;4.10;;;7.40;86.80;;;;;;5086856;28;20021;-71
2022/04/04 12:53:50;;;;;;;6.03;4.80;;;7.50;86.90;;;;;;5078009;28;20031;-71
2022/04/04 12:56:16;;;;;;;4.65;4.18;;;7.50;87.00;;;;;;5084374;28;20029;-70
2022/04/04 12:58:42;;;;;;;7.28;5.95;;;7.50;86.90;;;;;;5081571;28;20028;-70
2022/04/04 13:01:13;;;;;;;5.43;4.78;;;7.60;87.00;;;;;;5079786;28;20024;-71
2022/04/04 13:03:53;;;;;;;5.85;5.10;;;7.60;87.00;;;;;;5083405;28;20027;-71
2022/04/04 13:06:19;;;;;;;5.22;4.72;;;7.50;87.00;;;;;;5080043;28;20028;-71
2022/04/04 13:08:56;;;;;;;6.93;5.85;;;7.60;87.00;;;;;;5088855;28;20569;-71